sensor_id;sensor_type;location;lat;lon;timestamp;P1;durP1;ratioP1;P2;durP2;ratioP2
7239;SDS011;3661;53.288;10.458;2023-12-28T00:01:25;1844.50;;;999.90;;
7239;SDS011;3661;53.288;10.458;2023-12-28T00:03:57;1816.22;;;999.90;;
7239;SDS011;3661;53.288;10.458;2023-12-28T00:06:29;1799.15;;;999.90;;
7239;SDS011;3661;53.288;10.458;2023-12-28T00:09:01;1787.05;;;999.90;;
7239;SDS011;3661;53.288;10.458;2023-12-28T00:11:34;1752.25;;;999.90;;
7239;SDS011;3661;53.288;10.458;2023-12-28T00:14:06;1750.20;;;999.90;;
7239;SDS011;3661;53.288;10.458;2023-12-28T00:16:42;1757.07;;;999.90;;
7239;SDS011;3661;53.288;10.458;2023-12-28T00:19:16;1728.00;;;999.90;;
7239;SDS011;3661;53.288;10.458;2023-12-28T00:21:49;1706.85;;;999.90;;
7239;SDS011;3661;53.288;10.458;2023-12-28T00:24:21;1706.00;;;999.90;;
7239;SDS011;3661;53.288;10.458;2023-12-28T00:26:55;1685.97;;;999.90;;
7239;SDS011;3661;53.288;10.458;2023-12-28T00:29:27;1691.00;;;999.90;;
7239;SDS011;3661;53.288;10.458;2023-12-28T00:32:01;1666.22;;;999.90;;
7239;SDS011;3661;53.288;10.458;2023-12-28T00:34:33;1663.93;;;999.90;;
7239;SDS011;3661;53.288;10.458;2023-12-28T00:37:06;1637.18;;;999.90;;
7239;SDS011;3661;53.288;10.458;2023-12-28T00:39:39;1620.63;;;999.90;;
7239;SDS011;3661;53.288;10.458;2023-12-28T00:42:11;1623.13;;;999.90;;
7239;SDS011;3661;53.288;10.458;2023-12-28T00:44:43;1604.47;;;999.90;;
7239;SDS011;3661;53.288;10.458;2023-12-28T00:47:17;1596.43;;;999.90;;
7239;SDS011;3661;53.288;10.458;2023-12-28T00:49:49;1601.30;;;999.90;;
7239;SDS011;3661;53.288;10.458;2023-12-28T00:52:22;1579.15;;;999.90;;
7239;SDS011;3661;53.288;10.458;2023-12-28T00:54:54;1595.32;;;999.90;;
7239;SDS011;3661;53.288;10.458;2023-12-28T00:57:26;1544.28;;;999.90;;
7239;SDS011;3661;53.288;10.458;2023-12-28T00:59:58;1557.90;;;999.90;;
7239;SDS011;3661;53.288;10.458;2023-12-28T01:02:32;1566.53;;;999.90;;
7239;SDS011;3661;53.288;10.458;2023-12-28T01:05:05;1553.07;;;999.90;;
7239;SDS011;3661;53.288;10.458;2023-12-28T01:07:37;1524.35;;;999.90;;
7239;SDS011;3661;53.288;10.458;2023-12-28T01:10:10;1536.35;;;999.90;;
7239;SDS011;3661;53.288;10.458;2023-12-28T01:12:43;1509.90;;;999.90;;
7239;SDS011;3661;53.288;10.458;2023-12-28T01:15:15;1507.97;;;999.90;;
7239;SDS011;3661;53.288;10.458;2023-12-28T01:17:49;1508.28;;;999.90;;
7239;SDS011;3661;53.288;10.458;2023-12-28T01:20:21;1489.82;;;999.90;;
7239;SDS011;3661;53.288;10.458;2023-12-28T01:22:53;1469.90;;;999.90;;
7239;SDS011;3661;53.288;10.458;2023-12-28T01:25:25;1478.57;;;999.90;;
7239;SDS011;3661;53.288;10.458;2023-12-28T01:27:57;1500.67;;;999.90;;
7239;SDS011;3661;53.288;10.458;2023-12-28T01:30:29;1482.88;;;999.90;;
7239;SDS011;3661;53.288;10.458;2023-12-28T01:33:03;1461.78;;;999.90;;
7239;SDS011;3661;53.288;10.458;2023-12-28T01:35:35;1480.47;;;999.90;;
7239;SDS011;3661;53.288;10.458;2023-12-28T01:38:07;1465.75;;;999.90;;
7239;SDS011;3661;53.288;10.458;2023-12-28T01:40:43;1453.25;;;999.90;;
7239;SDS011;3661;53.288;10.458;2023-12-28T01:43:17;1442.13;;;999.90;;
7239;SDS011;3661;53.288;10.458;2023-12-28T01:45:49;1450.43;;;999.90;;
7239;SDS011;3661;53.288;10.458;2023-12-28T01:48:22;1454.38;;;999.90;;
7239;SDS011;3661;53.288;10.458;2023-12-28T01:50:55;1436.38;;;999.90;;
7239;SDS011;3661;53.288;10.458;2023-12-28T01:53:27;1428.30;;;999.90;;
7239;SDS011;3661;53.288;10.458;2023-12-28T01:56:00;1432.67;;;999.90;;
7239;SDS011;3661;53.288;10.458;2023-12-28T01:58:33;1436.03;;;999.90;;
7239;SDS011;3661;53.288;10.458;2023-12-28T02:01:07;1427.03;;;999.90;;
7239;SDS011;3661;53.288;10.458;2023-12-28T02:03:42;1426.35;;;999.90;;
7239;SDS011;3661;53.288;10.458;2023-12-28T02:06:15;1410.60;;;999.90;;
7239;SDS011;3661;53.288;10.458;2023-12-28T02:08:47;1413.70;;;999.90;;
7239;SDS011;3661;53.288;10.458;2023-12-28T02:11:19;1423.00;;;999.90;;
7239;SDS011;3661;53.288;10.458;2023-12-28T02:13:52;1419.07;;;999.90;;
7239;SDS011;3661;53.288;10.458;2023-12-28T02:16:25;1399.72;;;999.90;;
7239;SDS011;3661;53.288;10.458;2023-12-28T02:19:03;1415.13;;;999.90;;
7239;SDS011;3661;53.288;10.458;2023-12-28T02:21:47;1396.97;;;999.90;;
7239;SDS011;3661;53.288;10.458;2023-12-28T02:24:20;1404.88;;;999.90;;
7239;SDS011;3661;53.288;10.458;2023-12-28T02:26:54;1388.25;;;999.90;;
7239;SDS011;3661;53.288;10.458;2023-12-28T02:29:28;1402.65;;;999.90;;
7239;SDS011;3661;53.288;10.458;2023-12-28T02:32:00;1397.85;;;999.90;;
7239;SDS011;3661;53.288;10.458;2023-12-28T02:34:40;1381.32;;;999.90;;
7239;SDS011;3661;53.288;10.458;2023-12-28T02:37:15;1366.60;;;999.90;;
7239;SDS011;3661;53.288;10.458;2023-12-28T02:39:50;1374.82;;;999.90;;
7239;SDS011;3661;53.288;10.458;2023-12-28T02:42:26;1393.30;;;999.90;;
7239;SDS011;3661;53.288;10.458;2023-12-28T02:44:58;1366.40;;;999.90;;
7239;SDS011;3661;53.288;10.458;2023-12-28T02:47:31;1382.13;;;999.90;;
7239;SDS011;3661;53.288;10.458;2023-12-28T02:50:03;1337.90;;;999.90;;
7239;SDS011;3661;53.288;10.458;2023-12-28T02:52:36;1381.97;;;999.90;;
7239;SDS011;3661;53.288;10.458;2023-12-28T02:55:09;1365.80;;;999.90;;
7239;SDS011;3661;53.288;10.458;2023-12-28T02:57:42;1360.75;;;999.90;;
7239;SDS011;3661;53.288;10.458;2023-12-28T03:00:15;1347.78;;;999.90;;
7239;SDS011;3661;53.288;10.458;2023-12-28T03:02:48;1355.32;;;999.90;;
7239;SDS011;3661;53.288;10.458;2023-12-28T03:05:20;1372.57;;;999.90;;
7239;SDS011;3661;53.288;10.458;2023-12-28T03:07:52;1338.45;;;999.90;;
7239;SDS011;3661;53.288;10.458;2023-12-28T03:10:27;1332.20;;;999.90;;
7239;SDS011;3661;53.288;10.458;2023-12-28T03:13:00;1336.30;;;999.90;;
7239;SDS011;3661;53.288;10.458;2023-12-28T03:15:32;1350.75;;;999.90;;
7239;SDS011;3661;53.288;10.458;2023-12-28T03:18:05;1350.95;;;999.90;;
7239;SDS011;3661;53.288;10.458;2023-12-28T03:20:37;1359.50;;;999.90;;
7239;SDS011;3661;53.288;10.458;2023-12-28T03:23:11;1327.88;;;999.90;;
7239;SDS011;3661;53.288;10.458;2023-12-28T03:25:43;1319.90;;;999.90;;
7239;SDS011;3661;53.288;10.458;2023-12-28T03:28:16;1285.38;;;999.90;;
7239;SDS011;3661;53.288;10.458;2023-12-28T03:30:48;1321.93;;;999.90;;
7239;SDS011;3661;53.288;10.458;2023-12-28T03:33:21;1285.43;;;999.90;;
7239;SDS011;3661;53.288;10.458;2023-12-28T03:35:53;1287.10;;;999.90;;
7239;SDS011;3661;53.288;10.458;2023-12-28T03:38:27;1292.13;;;999.90;;
7239;SDS011;3661;53.288;10.458;2023-12-28T03:41:01;1268.53;;;999.90;;
7239;SDS011;3661;53.288;10.458;2023-12-28T03:43:34;1269.55;;;999.90;;
7239;SDS011;3661;53.288;10.458;2023-12-28T03:46:06;1307.28;;;999.90;;
7239;SDS011;3661;53.288;10.458;2023-12-28T03:48:39;1301.63;;;999.90;;
7239;SDS011;3661;53.288;10.458;2023-12-28T03:51:13;1240.80;;;999.90;;
7239;SDS011;3661;53.288;10.458;2023-12-28T03:53:45;1320.15;;;999.90;;
7239;SDS011;3661;53.288;10.458;2023-12-28T03:56:18;1296.07;;;999.90;;
7239;SDS011;3661;53.288;10.458;2023-12-28T03:58:53;1259.25;;;999.90;;
7239;SDS011;3661;53.288;10.458;2023-12-28T04:01:26;1230.32;;;999.90;;
7239;SDS011;3661;53.288;10.458;2023-12-28T04:03:58;1243.80;;;999.90;;
7239;SDS011;3661;53.288;10.458;2023-12-28T04:06:30;1239.07;;;999.90;;
7239;SDS011;3661;53.288;10.458;2023-12-28T04:09:02;1222.30;;;999.90;;
7239;SDS011;3661;53.288;10.458;2023-12-28T04:11:34;1226.63;;;999.90;;
7239;SDS011;3661;53.288;10.458;2023-12-28T04:14:09;1233.97;;;999.90;;
7239;SDS011;3661;53.288;10.458;2023-12-28T04:16:41;1253.55;;;999.90;;
7239;SDS011;3661;53.288;10.458;2023-12-28T04:19:13;1260.47;;;999.90;;
7239;SDS011;3661;53.288;10.458;2023-12-28T04:21:45;1244.28;;;999.90;;
7239;SDS011;3661;53.288;10.458;2023-12-28T04:24:20;1245.25;;;999.90;;
7239;SDS011;3661;53.288;10.458;2023-12-28T04:26:52;1241.90;;;999.90;;
7239;SDS011;3661;53.288;10.458;2023-12-28T04:29:25;1291.60;;;999.90;;
7239;SDS011;3661;53.288;10.458;2023-12-28T04:31:58;1232.85;;;999.90;;
7239;SDS011;3661;53.288;10.458;2023-12-28T04:34:30;1286.95;;;999.90;;
7239;SDS011;3661;53.288;10.458;2023-12-28T04:37:02;1277.95;;;999.90;;
7239;SDS011;3661;53.288;10.458;2023-12-28T04:39:34;1210.47;;;999.90;;
7239;SDS011;3661;53.288;10.458;2023-12-28T04:42:06;1224.15;;;999.90;;
7239;SDS011;3661;53.288;10.458;2023-12-28T04:44:40;1253.93;;;999.90;;
7239;SDS011;3661;53.288;10.458;2023-12-28T04:47:12;1277.68;;;999.90;;
7239;SDS011;3661;53.288;10.458;2023-12-28T04:49:44;1247.53;;;999.90;;
7239;SDS011;3661;53.288;10.458;2023-12-28T04:52:17;1211.30;;;999.90;;
7239;SDS011;3661;53.288;10.458;2023-12-28T04:54:49;1213.75;;;999.90;;
7239;SDS011;3661;53.288;10.458;2023-12-28T04:57:21;1216.00;;;999.90;;
7239;SDS011;3661;53.288;10.458;2023-12-28T04:59:56;1214.00;;;999.90;;
7239;SDS011;3661;53.288;10.458;2023-12-28T05:02:28;1264.75;;;999.90;;
7239;SDS011;3661;53.288;10.458;2023-12-28T05:05:00;1241.30;;;999.90;;
7239;SDS011;3661;53.288;10.458;2023-12-28T05:07:32;1229.40;;;999.90;;
7239;SDS011;3661;53.288;10.458;2023-12-28T05:10:04;1254.30;;;999.90;;
7239;SDS011;3661;53.288;10.458;2023-12-28T05:12:37;1251.43;;;999.90;;
7239;SDS011;3661;53.288;10.458;2023-12-28T05:15:11;1221.80;;;999.90;;
7239;SDS011;3661;53.288;10.458;2023-12-28T05:17:43;1144.18;;;999.90;;
7239;SDS011;3661;53.288;10.458;2023-12-28T05:20:15;1203.13;;;999.90;;
7239;SDS011;3661;53.288;10.458;2023-12-28T05:22:50;1147.50;;;999.90;;
7239;SDS011;3661;53.288;10.458;2023-12-28T05:25:22;1142.18;;;999.90;;
7239;SDS011;3661;53.288;10.458;2023-12-28T05:27:56;1232.95;;;999.90;;
7239;SDS011;3661;53.288;10.458;2023-12-28T05:30:29;1146.30;;;999.90;;
7239;SDS011;3661;53.288;10.458;2023-12-28T05:33:01;1220.78;;;999.90;;
7239;SDS011;3661;53.288;10.458;2023-12-28T05:35:33;1080.47;;;999.90;;
7239;SDS011;3661;53.288;10.458;2023-12-28T05:38:05;1212.80;;;999.90;;
7239;SDS011;3661;53.288;10.458;2023-12-28T05:40:37;1202.90;;;999.90;;
7239;SDS011;3661;53.288;10.458;2023-12-28T05:43:10;1200.00;;;999.90;;
7239;SDS011;3661;53.288;10.458;2023-12-28T05:45:43;1181.13;;;999.90;;
7239;SDS011;3661;53.288;10.458;2023-12-28T05:48:15;1216.35;;;999.90;;
7239;SDS011;3661;53.288;10.458;2023-12-28T05:50:47;1219.95;;;999.90;;
7239;SDS011;3661;53.288;10.458;2023-12-28T05:53:20;1171.13;;;999.90;;
7239;SDS011;3661;53.288;10.458;2023-12-28T05:55:52;1230.30;;;999.90;;
7239;SDS011;3661;53.288;10.458;2023-12-28T05:58:25;1202.47;;;999.90;;
7239;SDS011;3661;53.288;10.458;2023-12-28T06:00:58;1235.18;;;999.90;;
7239;SDS011;3661;53.288;10.458;2023-12-28T06:03:30;1165.10;;;999.90;;
7239;SDS011;3661;53.288;10.458;2023-12-28T06:06:02;1174.35;;;999.90;;
7239;SDS011;3661;53.288;10.458;2023-12-28T06:08:35;1214.45;;;999.90;;
7239;SDS011;3661;53.288;10.458;2023-12-28T06:11:07;1201.13;;;999.90;;
7239;SDS011;3661;53.288;10.458;2023-12-28T06:13:39;1201.78;;;999.90;;
7239;SDS011;3661;53.288;10.458;2023-12-28T06:16:13;1241.63;;;999.90;;
7239;SDS011;3661;53.288;10.458;2023-12-28T06:18:45;1213.65;;;999.90;;
7239;SDS011;3661;53.288;10.458;2023-12-28T06:21:17;1190.47;;;999.90;;
7239;SDS011;3661;53.288;10.458;2023-12-28T06:23:49;1185.17;;;999.90;;
7239;SDS011;3661;53.288;10.458;2023-12-28T06:26:21;1210.00;;;999.90;;
7239;SDS011;3661;53.288;10.458;2023-12-28T06:28:53;1169.03;;;999.90;;
7239;SDS011;3661;53.288;10.458;2023-12-28T06:31:27;1175.93;;;999.90;;
7239;SDS011;3661;53.288;10.458;2023-12-28T06:33:59;1220.88;;;999.90;;
7239;SDS011;3661;53.288;10.458;2023-12-28T06:36:31;1200.03;;;999.90;;
7239;SDS011;3661;53.288;10.458;2023-12-28T06:39:05;1159.35;;;999.90;;
7239;SDS011;3661;53.288;10.458;2023-12-28T06:41:37;1208.40;;;999.90;;
7239;SDS011;3661;53.288;10.458;2023-12-28T06:44:11;1190.18;;;999.90;;
7239;SDS011;3661;53.288;10.458;2023-12-28T06:46:46;1184.10;;;999.90;;
7239;SDS011;3661;53.288;10.458;2023-12-28T06:49:18;1203.72;;;999.90;;
7239;SDS011;3661;53.288;10.458;2023-12-28T06:51:50;1204.70;;;999.90;;
7239;SDS011;3661;53.288;10.458;2023-12-28T06:54:22;1162.90;;;999.90;;
7239;SDS011;3661;53.288;10.458;2023-12-28T06:56:55;1187.27;;;999.90;;
7239;SDS011;3661;53.288;10.458;2023-12-28T06:59:27;1208.55;;;999.90;;
7239;SDS011;3661;53.288;10.458;2023-12-28T07:02:00;1211.18;;;999.90;;
7239;SDS011;3661;53.288;10.458;2023-12-28T07:04:33;1215.63;;;999.90;;
7239;SDS011;3661;53.288;10.458;2023-12-28T07:07:05;1215.55;;;999.90;;
7239;SDS011;3661;53.288;10.458;2023-12-28T07:09:37;1207.80;;;999.90;;
7239;SDS011;3661;53.288;10.458;2023-12-28T07:12:09;1249.53;;;999.90;;
7239;SDS011;3661;53.288;10.458;2023-12-28T07:14:41;1226.60;;;999.90;;
7239;SDS011;3661;53.288;10.458;2023-12-28T07:17:17;1203.85;;;999.90;;
7239;SDS011;3661;53.288;10.458;2023-12-28T07:19:50;1231.32;;;999.90;;
7239;SDS011;3661;53.288;10.458;2023-12-28T07:22:22;1205.40;;;999.90;;
7239;SDS011;3661;53.288;10.458;2023-12-28T07:24:54;1198.93;;;999.90;;
7239;SDS011;3661;53.288;10.458;2023-12-28T07:27:26;1209.10;;;999.90;;
7239;SDS011;3661;53.288;10.458;2023-12-28T07:29:58;1239.20;;;999.90;;
7239;SDS011;3661;53.288;10.458;2023-12-28T07:32:31;1198.70;;;999.90;;
7239;SDS011;3661;53.288;10.458;2023-12-28T07:35:03;1216.90;;;999.90;;
7239;SDS011;3661;53.288;10.458;2023-12-28T07:37:37;1224.38;;;999.90;;
7239;SDS011;3661;53.288;10.458;2023-12-28T07:40:09;1231.18;;;999.90;;
7239;SDS011;3661;53.288;10.458;2023-12-28T07:42:43;1216.53;;;999.90;;
7239;SDS011;3661;53.288;10.458;2023-12-28T07:45:15;1213.03;;;999.90;;
7239;SDS011;3661;53.288;10.458;2023-12-28T07:47:49;1282.25;;;999.90;;
7239;SDS011;3661;53.288;10.458;2023-12-28T07:50:21;1279.07;;;999.90;;
7239;SDS011;3661;53.288;10.458;2023-12-28T07:52:54;1209.07;;;999.90;;
7239;SDS011;3661;53.288;10.458;2023-12-28T07:55:26;1227.18;;;999.90;;
7239;SDS011;3661;53.288;10.458;2023-12-28T07:57:58;1206.73;;;999.90;;
7239;SDS011;3661;53.288;10.458;2023-12-28T08:00:30;1200.28;;;999.90;;
7239;SDS011;3661;53.288;10.458;2023-12-28T08:03:04;1195.75;;;999.90;;
7239;SDS011;3661;53.288;10.458;2023-12-28T08:05:36;1208.13;;;999.90;;
7239;SDS011;3661;53.288;10.458;2023-12-28T08:08:08;1233.60;;;999.90;;
7239;SDS011;3661;53.288;10.458;2023-12-28T08:10:41;1199.18;;;999.90;;
7239;SDS011;3661;53.288;10.458;2023-12-28T08:13:15;1222.57;;;999.90;;
7239;SDS011;3661;53.288;10.458;2023-12-28T08:15:48;1233.45;;;999.90;;
7239;SDS011;3661;53.288;10.458;2023-12-28T08:18:22;1252.80;;;999.90;;
7239;SDS011;3661;53.288;10.458;2023-12-28T08:20:54;1236.93;;;999.90;;
7239;SDS011;3661;53.288;10.458;2023-12-28T08:23:26;1257.32;;;999.90;;
7239;SDS011;3661;53.288;10.458;2023-12-28T08:25:58;1248.65;;;999.90;;
7239;SDS011;3661;53.288;10.458;2023-12-28T08:28:30;1247.37;;;999.90;;
7239;SDS011;3661;53.288;10.458;2023-12-28T08:31:03;1250.10;;;999.90;;
7239;SDS011;3661;53.288;10.458;2023-12-28T08:33:39;1221.97;;;999.90;;
7239;SDS011;3661;53.288;10.458;2023-12-28T08:36:13;1301.88;;;999.90;;
7239;SDS011;3661;53.288;10.458;2023-12-28T08:38:47;1262.97;;;999.90;;
7239;SDS011;3661;53.288;10.458;2023-12-28T08:41:19;1223.13;;;999.90;;
7239;SDS011;3661;53.288;10.458;2023-12-28T08:43:54;1261.18;;;999.90;;
7239;SDS011;3661;53.288;10.458;2023-12-28T08:46:26;1230.07;;;999.90;;
7239;SDS011;3661;53.288;10.458;2023-12-28T08:49:00;1253.57;;;999.90;;
7239;SDS011;3661;53.288;10.458;2023-12-28T08:51:32;1272.97;;;999.90;;
7239;SDS011;3661;53.288;10.458;2023-12-28T08:54:04;1291.00;;;999.90;;
7239;SDS011;3661;53.288;10.458;2023-12-28T08:56:36;1285.78;;;999.90;;
7239;SDS011;3661;53.288;10.458;2023-12-28T08:59:09;1289.90;;;999.90;;
7239;SDS011;3661;53.288;10.458;2023-12-28T09:01:41;1302.27;;;999.90;;
7239;SDS011;3661;53.288;10.458;2023-12-28T09:04:14;1304.40;;;999.90;;
7239;SDS011;3661;53.288;10.458;2023-12-28T09:06:47;1282.13;;;999.90;;
7239;SDS011;3661;53.288;10.458;2023-12-28T09:09:19;1271.93;;;999.90;;
7239;SDS011;3661;53.288;10.458;2023-12-28T09:11:51;1266.35;;;999.90;;
7239;SDS011;3661;53.288;10.458;2023-12-28T09:14:23;1270.88;;;999.90;;
7239;SDS011;3661;53.288;10.458;2023-12-28T09:16:55;1290.55;;;999.90;;
7239;SDS011;3661;53.288;10.458;2023-12-28T09:19:30;1305.53;;;999.90;;
7239;SDS011;3661;53.288;10.458;2023-12-28T09:22:03;1315.40;;;999.90;;
7239;SDS011;3661;53.288;10.458;2023-12-28T09:24:35;1350.88;;;999.90;;
7239;SDS011;3661;53.288;10.458;2023-12-28T09:27:08;1328.18;;;999.90;;
7239;SDS011;3661;53.288;10.458;2023-12-28T09:29:41;1304.53;;;999.90;;
7239;SDS011;3661;53.288;10.458;2023-12-28T09:32:13;1332.30;;;999.90;;
7239;SDS011;3661;53.288;10.458;2023-12-28T09:34:48;1358.55;;;999.90;;
7239;SDS011;3661;53.288;10.458;2023-12-28T09:37:20;1352.25;;;999.90;;
7239;SDS011;3661;53.288;10.458;2023-12-28T09:39:52;1325.13;;;999.90;;
7239;SDS011;3661;53.288;10.458;2023-12-28T09:42:25;1373.23;;;999.90;;
7239;SDS011;3661;53.288;10.458;2023-12-28T09:45:00;1337.80;;;999.90;;
7239;SDS011;3661;53.288;10.458;2023-12-28T09:47:33;1363.80;;;999.90;;
7239;SDS011;3661;53.288;10.458;2023-12-28T09:50:07;1355.80;;;999.90;;
7239;SDS011;3661;53.288;10.458;2023-12-28T09:52:40;1368.50;;;999.90;;
7239;SDS011;3661;53.288;10.458;2023-12-28T09:55:13;1376.87;;;999.90;;
7239;SDS011;3661;53.288;10.458;2023-12-28T09:57:45;1360.13;;;999.90;;
7239;SDS011;3661;53.288;10.458;2023-12-28T10:00:18;1384.10;;;999.90;;
7239;SDS011;3661;53.288;10.458;2023-12-28T10:02:50;1369.57;;;999.90;;
7239;SDS011;3661;53.288;10.458;2023-12-28T10:05:24;1396.30;;;999.90;;
7239;SDS011;3661;53.288;10.458;2023-12-28T10:07:57;1395.45;;;999.90;;
7239;SDS011;3661;53.288;10.458;2023-12-28T10:10:29;1396.45;;;999.90;;
7239;SDS011;3661;53.288;10.458;2023-12-28T10:13:01;1402.20;;;999.90;;
7239;SDS011;3661;53.288;10.458;2023-12-28T10:15:33;1408.65;;;999.90;;
7239;SDS011;3661;53.288;10.458;2023-12-28T10:18:06;1426.75;;;999.90;;
7239;SDS011;3661;53.288;10.458;2023-12-28T10:20:40;1404.07;;;999.90;;
7239;SDS011;3661;53.288;10.458;2023-12-28T10:23:12;1411.65;;;999.90;;
7239;SDS011;3661;53.288;10.458;2023-12-28T10:25:45;1400.75;;;999.90;;
7239;SDS011;3661;53.288;10.458;2023-12-28T10:28:18;1416.45;;;999.90;;
7239;SDS011;3661;53.288;10.458;2023-12-28T10:30:53;1422.68;;;999.90;;
7239;SDS011;3661;53.288;10.458;2023-12-28T10:33:26;1424.53;;;999.90;;
7239;SDS011;3661;53.288;10.458;2023-12-28T10:35:59;1429.07;;;999.90;;
7239;SDS011;3661;53.288;10.458;2023-12-28T10:38:37;1442.05;;;999.90;;
7239;SDS011;3661;53.288;10.458;2023-12-28T10:41:09;1444.90;;;999.90;;
7239;SDS011;3661;53.288;10.458;2023-12-28T10:43:45;1444.03;;;999.90;;
7239;SDS011;3661;53.288;10.458;2023-12-28T10:46:21;1448.90;;;999.90;;
7239;SDS011;3661;53.288;10.458;2023-12-28T10:48:57;1462.35;;;999.90;;
7239;SDS011;3661;53.288;10.458;2023-12-28T10:51:32;1445.82;;;999.90;;
7239;SDS011;3661;53.288;10.458;2023-12-28T10:54:10;1458.13;;;999.90;;
7239;SDS011;3661;53.288;10.458;2023-12-28T10:56:53;1452.57;;;999.90;;
7239;SDS011;3661;53.288;10.458;2023-12-28T10:59:32;1465.00;;;999.90;;
7239;SDS011;3661;53.288;10.458;2023-12-28T11:02:15;1457.40;;;999.90;;
7239;SDS011;3661;53.288;10.458;2023-12-28T11:04:51;1493.90;;;999.90;;
7239;SDS011;3661;53.288;10.458;2023-12-28T11:07:29;1486.63;;;999.90;;
7239;SDS011;3661;53.288;10.458;2023-12-28T11:10:03;1497.22;;;999.90;;
7239;SDS011;3661;53.288;10.458;2023-12-28T11:12:37;1478.00;;;999.90;;
7239;SDS011;3661;53.288;10.458;2023-12-28T11:15:10;1465.38;;;999.90;;
7239;SDS011;3661;53.288;10.458;2023-12-28T11:17:42;1499.40;;;999.90;;
7239;SDS011;3661;53.288;10.458;2023-12-28T11:20:15;1462.82;;;999.90;;
7239;SDS011;3661;53.288;10.458;2023-12-28T11:22:49;1487.63;;;999.90;;
7239;SDS011;3661;53.288;10.458;2023-12-28T11:25:22;1476.63;;;999.90;;
7239;SDS011;3661;53.288;10.458;2023-12-28T11:27:54;1441.50;;;999.90;;
7239;SDS011;3661;53.288;10.458;2023-12-28T11:30:26;1470.15;;;999.90;;
7239;SDS011;3661;53.288;10.458;2023-12-28T11:32:59;1482.85;;;999.90;;
7239;SDS011;3661;53.288;10.458;2023-12-28T11:35:34;1487.33;;;999.90;;
7239;SDS011;3661;53.288;10.458;2023-12-28T11:38:16;1480.50;;;999.90;;
7239;SDS011;3661;53.288;10.458;2023-12-28T11:40:49;1496.80;;;999.90;;
7239;SDS011;3661;53.288;10.458;2023-12-28T11:43:23;1488.88;;;999.90;;
7239;SDS011;3661;53.288;10.458;2023-12-28T11:46:03;1467.78;;;999.90;;
7239;SDS011;3661;53.288;10.458;2023-12-28T11:48:37;1493.85;;;999.90;;
7239;SDS011;3661;53.288;10.458;2023-12-28T11:51:09;1471.07;;;999.90;;
7239;SDS011;3661;53.288;10.458;2023-12-28T11:53:43;1478.30;;;999.90;;
7239;SDS011;3661;53.288;10.458;2023-12-28T11:56:17;1473.63;;;999.90;;
7239;SDS011;3661;53.288;10.458;2023-12-28T11:58:49;1482.72;;;999.90;;
7239;SDS011;3661;53.288;10.458;2023-12-28T12:01:21;1478.88;;;999.90;;
7239;SDS011;3661;53.288;10.458;2023-12-28T12:03:53;1472.35;;;999.90;;
7239;SDS011;3661;53.288;10.458;2023-12-28T12:06:25;1470.78;;;999.90;;
7239;SDS011;3661;53.288;10.458;2023-12-28T12:08:59;1479.07;;;999.90;;
7239;SDS011;3661;53.288;10.458;2023-12-28T12:11:31;1490.00;;;999.90;;
7239;SDS011;3661;53.288;10.458;2023-12-28T12:14:03;1484.25;;;999.90;;
7239;SDS011;3661;53.288;10.458;2023-12-28T12:16:38;1486.30;;;999.90;;
7239;SDS011;3661;53.288;10.458;2023-12-28T12:19:11;1485.00;;;999.90;;
7239;SDS011;3661;53.288;10.458;2023-12-28T12:21:43;1482.93;;;999.90;;
7239;SDS011;3661;53.288;10.458;2023-12-28T12:24:20;1473.13;;;999.90;;
7239;SDS011;3661;53.288;10.458;2023-12-28T12:26:53;1467.80;;;999.90;;
7239;SDS011;3661;53.288;10.458;2023-12-28T12:29:25;1468.15;;;999.90;;
7239;SDS011;3661;53.288;10.458;2023-12-28T12:31:58;1490.75;;;999.90;;
7239;SDS011;3661;53.288;10.458;2023-12-28T12:34:31;1458.95;;;999.90;;
7239;SDS011;3661;53.288;10.458;2023-12-28T12:37:03;1471.40;;;999.90;;
7239;SDS011;3661;53.288;10.458;2023-12-28T12:39:37;1489.50;;;999.90;;
7239;SDS011;3661;53.288;10.458;2023-12-28T12:42:12;1487.72;;;999.90;;
7239;SDS011;3661;53.288;10.458;2023-12-28T12:44:44;1463.30;;;999.90;;
7239;SDS011;3661;53.288;10.458;2023-12-28T12:47:16;1481.38;;;999.90;;
7239;SDS011;3661;53.288;10.458;2023-12-28T12:49:48;1483.75;;;999.90;;
7239;SDS011;3661;53.288;10.458;2023-12-28T12:52:22;1488.50;;;999.90;;
7239;SDS011;3661;53.288;10.458;2023-12-28T12:54:57;1474.40;;;999.90;;
7239;SDS011;3661;53.288;10.458;2023-12-28T12:57:30;1495.05;;;999.90;;
7239;SDS011;3661;53.288;10.458;2023-12-28T13:00:03;1493.97;;;999.90;;
7239;SDS011;3661;53.288;10.458;2023-12-28T13:02:38;1476.60;;;999.90;;
7239;SDS011;3661;53.288;10.458;2023-12-28T13:05:11;1482.97;;;999.90;;
7239;SDS011;3661;53.288;10.458;2023-12-28T13:07:43;1476.53;;;999.90;;
7239;SDS011;3661;53.288;10.458;2023-12-28T13:10:16;1484.15;;;999.90;;
7239;SDS011;3661;53.288;10.458;2023-12-28T13:12:48;1497.75;;;999.90;;
7239;SDS011;3661;53.288;10.458;2023-12-28T13:15:20;1494.78;;;999.90;;
7239;SDS011;3661;53.288;10.458;2023-12-28T13:17:53;1480.03;;;999.90;;
7239;SDS011;3661;53.288;10.458;2023-12-28T13:20:25;1482.47;;;999.90;;
7239;SDS011;3661;53.288;10.458;2023-12-28T13:22:57;1457.43;;;999.90;;
7239;SDS011;3661;53.288;10.458;2023-12-28T13:25:31;1474.53;;;999.90;;
7239;SDS011;3661;53.288;10.458;2023-12-28T13:28:03;1482.00;;;999.90;;
7239;SDS011;3661;53.288;10.458;2023-12-28T13:30:35;1499.28;;;999.90;;
7239;SDS011;3661;53.288;10.458;2023-12-28T13:33:07;1486.83;;;999.90;;
7239;SDS011;3661;53.288;10.458;2023-12-28T13:35:39;1465.50;;;999.90;;
7239;SDS011;3661;53.288;10.458;2023-12-28T13:38:12;1481.68;;;999.90;;
7239;SDS011;3661;53.288;10.458;2023-12-28T13:40:45;1500.75;;;999.90;;
7239;SDS011;3661;53.288;10.458;2023-12-28T13:43:19;1486.88;;;999.90;;
7239;SDS011;3661;53.288;10.458;2023-12-28T13:45:51;1472.95;;;999.90;;
7239;SDS011;3661;53.288;10.458;2023-12-28T13:48:23;1487.17;;;999.90;;
7239;SDS011;3661;53.288;10.458;2023-12-28T13:50:56;1485.82;;;999.90;;
7239;SDS011;3661;53.288;10.458;2023-12-28T13:53:28;1485.35;;;999.90;;
7239;SDS011;3661;53.288;10.458;2023-12-28T13:56:03;1496.85;;;999.90;;
7239;SDS011;3661;53.288;10.458;2023-12-28T13:58:37;1492.60;;;999.90;;
7239;SDS011;3661;53.288;10.458;2023-12-28T14:01:10;1483.95;;;999.90;;
7239;SDS011;3661;53.288;10.458;2023-12-28T14:03:43;1493.20;;;999.90;;
7239;SDS011;3661;53.288;10.458;2023-12-28T14:06:18;1476.75;;;999.90;;
7239;SDS011;3661;53.288;10.458;2023-12-28T14:08:53;1463.82;;;999.90;;
7239;SDS011;3661;53.288;10.458;2023-12-28T14:11:29;1463.38;;;999.90;;
7239;SDS011;3661;53.288;10.458;2023-12-28T14:14:01;1478.30;;;999.90;;
7239;SDS011;3661;53.288;10.458;2023-12-28T14:16:33;1483.05;;;999.90;;
7239;SDS011;3661;53.288;10.458;2023-12-28T14:19:08;1478.72;;;999.90;;
7239;SDS011;3661;53.288;10.458;2023-12-28T14:21:41;1482.38;;;999.90;;
7239;SDS011;3661;53.288;10.458;2023-12-28T14:24:17;1461.53;;;999.90;;
7239;SDS011;3661;53.288;10.458;2023-12-28T14:26:51;1465.20;;;999.90;;
7239;SDS011;3661;53.288;10.458;2023-12-28T14:29:25;1463.80;;;999.90;;